createdAt,value
2022-11-05T00:00:59.924Z,84.75
2022-11-05T00:01:59.997Z,85.92
2022-11-05T00:02:59.913Z,86.88
2022-11-05T00:03:59.956Z,87.18
2022-11-05T00:04:59.927Z,87.04
2022-11-05T00:05:59.891Z,86.67
2022-11-05T00:06:59.891Z,86.43
2022-11-05T00:07:59.914Z,86.43
2022-11-05T00:08:59.878Z,86.53
2022-11-05T00:09:59.866Z,86.57
2022-11-05T00:10:59.873Z,86.26
2022-11-05T00:11:59.854Z,86.36
2022-11-05T00:12:59.839Z,87.14
2022-11-05T00:13:59.851Z,86.63
2022-11-05T00:14:59.837Z,86.77
2022-11-05T00:15:59.818Z,87.29
2022-11-05T00:16:59.836Z,87.23
2022-11-05T00:17:59.822Z,86.91
2022-11-05T00:18:59.818Z,88.08
2022-11-05T00:19:59.829Z,88.04
2022-11-05T00:20:59.793Z,88.14
2022-11-05T00:21:59.789Z,87.43
2022-11-05T00:22:59.789Z,88.00
2022-11-05T00:23:59.778Z,87.59
2022-11-05T00:24:59.791Z,87.04
2022-11-05T00:25:59.773Z,87.08
2022-11-05T00:26:59.773Z,86.83
2022-11-05T00:27:59.750Z,86.53
2022-11-05T00:28:59.761Z,86.43
2022-11-05T00:29:59.749Z,86.12
2022-11-05T00:30:59.735Z,85.71
2022-11-05T00:31:59.740Z,86.16
2022-11-05T00:32:59.726Z,87.18
2022-11-05T00:33:59.717Z,87.14
2022-11-05T00:34:59.745Z,86.94
2022-11-05T00:35:59.689Z,86.43
2022-11-05T00:37:00.697Z,86.53
2022-11-05T00:37:59.701Z,86.77
2022-11-05T00:38:59.680Z,87.08
2022-11-05T00:39:59.681Z,87.29
2022-11-05T00:40:59.673Z,87.18
2022-11-05T00:41:59.653Z,87.08
2022-11-05T00:42:59.654Z,87.24
2022-11-05T00:43:59.673Z,87.38
2022-11-05T00:44:59.650Z,87.45
2022-11-05T00:45:59.633Z,86.94
2022-11-05T00:47:00.054Z,86.53
2022-11-05T00:48:00.608Z,86.02
2022-11-05T00:48:59.611Z,85.98
2022-11-05T00:49:59.639Z,85.37
2022-11-05T00:50:59.613Z,85.27
2022-11-05T00:51:59.582Z,85.41
2022-11-05T00:52:59.805Z,85.27
2022-11-05T00:53:59.636Z,85.06
2022-11-05T00:54:59.568Z,85.16
2022-11-05T00:55:59.585Z,85.47
2022-11-05T00:57:04.458Z,85.47
2022-11-05T00:58:01.581Z,85.47
2022-11-05T00:58:59.562Z,85.37
2022-11-05T00:59:59.541Z,85.06
2022-11-05T01:00:59.538Z,84.86
2022-11-05T01:01:59.658Z,84.61
2022-11-05T01:02:59.517Z,85.02
2022-11-05T01:03:59.514Z,84.72
2022-11-05T01:04:59.523Z,84.61
2022-11-05T01:05:59.526Z,84.92
2022-11-05T01:06:59.500Z,84.82
2022-11-05T01:07:59.530Z,84.72
2022-11-05T01:08:59.487Z,83.80
2022-11-05T01:09:59.498Z,83.39
2022-11-05T01:10:59.498Z,83.43
2022-11-05T01:11:59.479Z,83.90
2022-11-05T01:12:59.455Z,83.70
2022-11-05T01:13:59.510Z,83.63
2022-11-05T01:14:59.459Z,84.75
2022-11-05T01:15:59.448Z,84.59
2022-11-05T01:16:59.517Z,85.71
2022-11-05T01:17:59.421Z,85.65
2022-11-05T01:18:59.427Z,86.26
2022-11-05T01:19:59.437Z,86.26
2022-11-05T01:20:59.407Z,86.47
2022-11-05T01:21:59.417Z,87.12
2022-11-05T01:22:59.402Z,87.43
2022-11-05T01:23:59.390Z,87.84
2022-11-05T01:24:59.398Z,87.18
2022-11-05T01:25:59.378Z,86.20
2022-11-05T01:26:59.410Z,86.61
2022-11-05T01:27:59.378Z,87.43
2022-11-05T01:28:59.404Z,87.63
2022-11-05T01:29:59.422Z,88.14
2022-11-05T01:30:59.338Z,87.63
2022-11-05T01:31:59.353Z,87.53
2022-11-05T01:32:59.342Z,86.98
2022-11-05T01:33:59.317Z,86.36
2022-11-05T01:34:59.322Z,85.65
2022-11-05T01:35:59.318Z,86.12
2022-11-05T01:36:59.318Z,85.82
2022-11-05T01:37:59.307Z,85.82
2022-11-05T01:38:59.306Z,85.21
2022-11-05T01:39:59.314Z,85.27
2022-11-05T01:40:59.286Z,84.96
2022-11-05T01:41:59.305Z,85.06
2022-11-05T01:42:59.274Z,84.80
2022-11-05T01:43:59.281Z,85.45
2022-11-05T01:44:59.309Z,85.41
2022-11-05T01:46:00.263Z,85.51
2022-11-05T01:46:59.271Z,85.41
2022-11-05T01:47:59.257Z,85.10
2022-11-05T01:49:03.152Z,84.86
2022-11-05T01:50:00.230Z,84.80
2022-11-05T01:50:59.242Z,84.59
2022-11-05T01:51:59.254Z,84.59
2022-11-05T01:52:59.215Z,85.41
2022-11-05T01:53:59.220Z,85.30
2022-11-05T01:54:59.203Z,84.59
2022-11-05T01:55:59.208Z,84.59
2022-11-05T01:56:59.220Z,84.86
2022-11-05T01:57:59.203Z,84.55
2022-11-05T01:58:59.184Z,84.45
2022-11-05T01:59:59.192Z,84.55
2022-11-05T02:00:59.172Z,84.75
2022-11-05T02:01:59.314Z,84.61
2022-11-05T02:02:59.223Z,84.14
2022-11-05T02:03:59.139Z,84.69
2022-11-05T02:04:59.141Z,85.10
2022-11-05T02:05:59.165Z,85.41
2022-11-05T02:06:59.128Z,85.71
2022-11-05T02:07:59.139Z,85.71
2022-11-05T02:08:59.133Z,85.75
2022-11-05T02:09:59.111Z,85.92
2022-11-05T02:10:59.117Z,85.82
2022-11-05T02:11:59.109Z,85.45
2022-11-05T02:12:59.095Z,85.61
2022-11-05T02:13:59.103Z,85.55
2022-11-05T02:14:59.095Z,86.16
2022-11-05T02:15:59.079Z,86.20
2022-11-05T02:16:59.070Z,87.02
2022-11-05T02:17:59.087Z,86.67
2022-11-05T02:18:59.071Z,86.77
2022-11-05T02:19:59.043Z,86.36
2022-11-05T02:20:59.082Z,86.43
2022-11-05T02:21:59.035Z,85.61
2022-11-05T02:22:59.028Z,85.51
2022-11-05T02:23:59.043Z,85.30
2022-11-05T02:24:59.016Z,84.86
2022-11-05T02:26:00.008Z,84.80
2022-11-05T02:26:59.011Z,85.41
2022-11-05T02:27:58.992Z,85.45
2022-11-05T02:28:59.014Z,85.51
2022-11-05T02:29:59.000Z,85.30
2022-11-05T02:30:58.980Z,84.80
2022-11-05T02:31:58.959Z,85.27
2022-11-05T02:33:00.036Z,84.86
2022-11-05T02:33:58.992Z,85.30
2022-11-05T02:34:58.955Z,85.35
2022-11-05T02:35:58.951Z,85.47
2022-11-05T02:36:58.940Z,85.30
2022-11-05T02:37:58.936Z,85.65
2022-11-05T02:38:58.943Z,86.61
2022-11-05T02:39:58.943Z,86.77
2022-11-05T02:40:58.928Z,86.57
2022-11-05T02:42:03.627Z,86.91
2022-11-05T02:43:00.920Z,87.12
2022-11-05T02:43:58.899Z,87.12
2022-11-05T02:44:58.923Z,88.65
2022-11-05T02:45:58.890Z,88.04
2022-11-05T02:46:58.884Z,87.84
2022-11-05T02:47:58.886Z,87.59
2022-11-05T02:48:58.871Z,87.29
2022-11-05T02:49:58.887Z,87.08
2022-11-05T02:50:58.866Z,86.67
2022-11-05T02:51:58.851Z,86.02
2022-11-05T02:52:58.863Z,85.88
2022-11-05T02:53:58.843Z,85.27
2022-11-05T02:54:58.840Z,85.57
2022-11-05T02:55:58.852Z,85.16
2022-11-05T02:56:58.907Z,85.06
2022-11-05T02:57:58.811Z,84.51
2022-11-05T02:58:58.807Z,84.34
2022-11-05T02:59:58.825Z,84.51
2022-11-05T03:00:58.795Z,84.96
2022-11-05T03:01:58.901Z,84.86
2022-11-05T03:02:58.846Z,84.45
2022-11-05T03:03:58.827Z,84.86
2022-11-05T03:04:58.775Z,84.86
2022-11-05T03:05:58.807Z,84.75
2022-11-05T03:06:58.759Z,84.86
2022-11-05T03:07:58.749Z,84.04
2022-11-05T03:08:58.761Z,83.94
2022-11-05T03:09:58.742Z,84.14
2022-11-05T03:10:58.750Z,84.66
2022-11-05T03:11:58.773Z,84.75
2022-11-05T03:12:58.710Z,84.66
2022-11-05T03:13:58.699Z,84.55
2022-11-05T03:14:58.711Z,84.86
2022-11-05T03:15:58.698Z,84.66
2022-11-05T03:16:58.718Z,84.69
2022-11-05T03:17:58.840Z,84.66
2022-11-05T03:18:58.671Z,84.96
2022-11-05T03:19:58.667Z,84.59
2022-11-05T03:20:58.667Z,84.90
2022-11-05T03:21:58.658Z,85.10
2022-11-05T03:22:58.646Z,84.86
2022-11-05T03:23:58.652Z,84.90
2022-11-05T03:24:58.635Z,84.80
2022-11-05T03:25:58.629Z,84.59
2022-11-05T03:26:58.670Z,84.90
2022-11-05T03:27:58.624Z,85.35
2022-11-05T03:28:58.611Z,85.71
2022-11-05T03:29:58.614Z,85.65
2022-11-05T03:30:58.601Z,86.26
2022-11-05T03:31:58.596Z,86.91
2022-11-05T03:32:58.589Z,87.47
2022-11-05T03:33:58.576Z,88.18
2022-11-05T03:34:58.578Z,88.64
2022-11-05T03:35:58.586Z,88.84
2022-11-05T03:36:58.604Z,88.64
2022-11-05T03:37:58.573Z,89.50
2022-11-05T03:38:58.585Z,90.27
2022-11-05T03:39:58.541Z,90.72
2022-11-05T03:40:58.535Z,89.65
2022-11-05T03:41:58.551Z,89.20
2022-11-05T03:42:58.522Z,89.20
2022-11-05T03:43:58.527Z,89.17
2022-11-05T03:44:58.538Z,88.76
2022-11-05T03:45:58.514Z,88.31
2022-11-05T03:46:58.494Z,87.90
2022-11-05T03:47:58.518Z,87.08
2022-11-05T03:48:58.536Z,86.91
2022-11-05T03:49:58.500Z,88.14
2022-11-05T03:50:58.474Z,88.04
2022-11-05T03:51:58.483Z,87.73
2022-11-05T03:52:58.470Z,87.38
2022-11-05T03:53:58.487Z,86.98
2022-11-05T03:54:58.462Z,86.06
2022-11-05T03:55:59.289Z,87.12
2022-11-05T03:56:58.443Z,86.71
2022-11-05T03:57:58.456Z,88.04
2022-11-05T03:58:59.265Z,88.14
2022-11-05T03:59:59.471Z,88.45
2022-11-05T04:00:58.414Z,88.00
2022-11-05T04:01:58.542Z,87.18
2022-11-05T04:02:58.617Z,87.08
2022-11-05T04:03:58.395Z,87.18
2022-11-05T04:04:58.375Z,86.63
2022-11-05T04:05:58.463Z,86.43
2022-11-05T04:06:58.369Z,86.02
2022-11-05T04:07:58.391Z,85.86
2022-11-05T04:08:58.350Z,86.02
2022-11-05T04:09:58.371Z,86.43
2022-11-05T04:10:58.350Z,86.22
2022-11-05T04:11:58.338Z,85.71
2022-11-05T04:12:58.496Z,86.16
2022-11-05T04:13:58.335Z,86.02
2022-11-05T04:14:58.324Z,85.61
2022-11-05T04:15:58.310Z,85.82
2022-11-05T04:16:58.311Z,85.51
2022-11-05T04:17:58.323Z,85.71
2022-11-05T04:18:58.290Z,86.02
2022-11-05T04:19:58.290Z,85.88
2022-11-05T04:20:58.283Z,85.41
2022-11-05T04:21:58.286Z,85.16
2022-11-05T04:22:58.327Z,84.86
2022-11-05T04:23:58.270Z,84.90
2022-11-05T04:24:58.255Z,84.90
2022-11-05T04:25:58.268Z,84.69
2022-11-05T04:26:58.246Z,84.80
2022-11-05T04:27:58.267Z,85.30
2022-11-05T04:28:59.756Z,85.21
2022-11-05T04:29:58.222Z,85.96
2022-11-05T04:30:58.238Z,86.16
2022-11-05T04:31:58.243Z,86.36
2022-11-05T04:32:58.302Z,86.36
2022-11-05T04:33:58.230Z,86.26
2022-11-05T04:34:58.198Z,86.16
2022-11-05T04:35:58.191Z,85.75
2022-11-05T04:36:58.206Z,86.47
2022-11-05T04:37:58.182Z,86.26
2022-11-05T04:38:58.198Z,86.88
2022-11-05T04:39:58.182Z,87.23
2022-11-05T04:40:58.170Z,87.02
2022-11-05T04:41:58.162Z,87.32
2022-11-05T04:42:58.170Z,87.43
2022-11-05T04:43:58.152Z,87.32
2022-11-05T04:44:58.161Z,87.73
2022-11-05T04:45:58.153Z,87.32
2022-11-05T04:46:58.175Z,87.23
2022-11-05T04:47:58.134Z,86.41
2022-11-05T04:48:58.157Z,87.29
2022-11-05T04:49:58.122Z,87.02
2022-11-05T04:50:58.162Z,86.30
2022-11-05T04:51:58.103Z,86.61
2022-11-05T04:52:58.112Z,86.30
2022-11-05T04:53:58.091Z,86.00
2022-11-05T04:54:58.110Z,86.41
2022-11-05T04:55:58.091Z,86.55
2022-11-05T04:56:58.065Z,86.55
2022-11-05T04:57:58.070Z,85.89
2022-11-05T04:58:58.079Z,86.00
2022-11-05T04:59:58.065Z,85.79
2022-11-05T05:00:58.116Z,85.94
2022-11-05T05:01:58.090Z,86.24
2022-11-05T05:02:58.058Z,85.94
2022-11-05T05:03:58.075Z,85.83
2022-11-05T05:04:58.051Z,85.94
2022-11-05T05:06:03.385Z,85.97
2022-11-05T05:07:00.033Z,85.94
2022-11-05T05:07:58.006Z,85.83
2022-11-05T05:08:58.033Z,85.88
2022-11-05T05:09:58.017Z,86.08
2022-11-05T05:10:58.041Z,86.04
2022-11-05T05:11:58.014Z,85.88
2022-11-05T05:12:57.997Z,85.81
2022-11-05T05:13:57.973Z,86.43
2022-11-05T05:14:57.975Z,86.98
2022-11-05T05:15:57.989Z,87.47
2022-11-05T05:16:57.953Z,88.14
2022-11-05T05:17:57.951Z,88.39
2022-11-05T05:18:57.959Z,88.29
2022-11-05T05:19:57.932Z,88.70
2022-11-05T05:20:57.949Z,89.36
2022-11-05T05:21:57.955Z,89.54
2022-11-05T05:22:57.943Z,89.69
2022-11-05T05:23:57.957Z,90.75
2022-11-05T05:24:57.928Z,90.71
2022-11-05T05:25:57.921Z,90.85
2022-11-05T05:26:57.900Z,91.93
2022-11-05T05:27:57.903Z,91.82
2022-11-05T05:28:57.884Z,91.67
2022-11-05T05:29:57.872Z,92.14
2022-11-05T05:30:58.915Z,90.09
2022-11-05T05:31:58.900Z,90.61
2022-11-05T05:32:57.883Z,90.61
2022-11-05T05:33:58.440Z,90.75
2022-11-05T05:34:57.852Z,90.44
2022-11-05T05:35:57.884Z,90.44
2022-11-05T05:36:57.832Z,90.55
2022-11-05T05:37:57.850Z,90.89
2022-11-05T05:38:57.832Z,90.80
2022-11-05T05:39:57.853Z,91.00
2022-11-05T05:40:57.815Z,90.89
2022-11-05T05:41:57.869Z,90.89
2022-11-05T05:42:57.803Z,90.83
2022-11-05T05:43:57.807Z,90.63
2022-11-05T05:44:57.795Z,91.97
2022-11-05T05:45:57.784Z,92.52
2022-11-05T05:46:57.777Z,91.60
2022-11-05T05:47:57.805Z,92.25
2022-11-05T05:48:57.776Z,91.95
2022-11-05T05:49:57.768Z,91.74
2022-11-05T05:50:58.485Z,92.46
2022-11-05T05:51:57.766Z,91.95
2022-11-05T05:52:57.744Z,92.71
2022-11-05T05:53:57.759Z,93.12
2022-11-05T05:54:57.728Z,92.92
2022-11-05T05:55:57.720Z,92.82
2022-11-05T05:56:57.725Z,93.23
2022-11-05T05:57:57.703Z,92.40
2022-11-05T05:58:57.715Z,92.10
2022-11-05T05:59:58.484Z,92.40
2022-11-05T06:00:57.693Z,92.30
2022-11-05T06:01:57.763Z,92.40
2022-11-05T06:02:57.737Z,92.20
2022-11-05T06:03:57.697Z,92.50
2022-11-05T06:04:57.659Z,91.89
2022-11-05T06:05:57.693Z,92.10
2022-11-05T06:06:57.665Z,92.50
2022-11-05T06:07:57.655Z,91.78
2022-11-05T06:08:57.696Z,91.27
2022-11-05T06:09:57.630Z,91.33
2022-11-05T06:10:57.649Z,90.96
2022-11-05T06:11:57.637Z,90.30
2022-11-05T06:12:57.627Z,89.89
2022-11-05T06:13:57.608Z,90.20
2022-11-05T06:14:57.620Z,89.89
2022-11-05T06:15:57.592Z,89.89
2022-11-05T06:16:57.591Z,89.58
2022-11-05T06:17:57.604Z,89.58
2022-11-05T06:18:57.561Z,89.58
2022-11-05T06:19:57.558Z,90.00
2022-11-05T06:20:57.572Z,89.62
2022-11-05T06:21:57.567Z,89.97
2022-11-05T06:22:57.579Z,90.49
2022-11-05T06:23:57.547Z,90.69
2022-11-05T06:24:57.536Z,90.43
2022-11-05T06:25:57.519Z,90.67
2022-11-05T06:26:58.722Z,91.71
2022-11-05T06:27:57.546Z,91.81
2022-11-05T06:28:57.521Z,92.08
2022-11-05T06:29:57.588Z,92.59
2022-11-05T06:30:57.495Z,91.05
2022-11-05T06:31:57.495Z,91.71
2022-11-05T06:32:57.524Z,90.78
2022-11-05T06:33:57.476Z,91.50
2022-11-05T06:34:57.467Z,91.44
2022-11-05T06:35:57.475Z,91.96
2022-11-05T06:36:57.476Z,92.37
2022-11-05T06:37:57.460Z,92.47
2022-11-05T06:38:57.447Z,92.43
2022-11-05T06:39:57.459Z,92.29
2022-11-05T06:40:57.446Z,91.66
2022-11-05T06:42:17.137Z,91.11
2022-11-05T06:42:59.940Z,90.64
2022-11-05T06:43:57.425Z,90.22
2022-11-05T06:44:57.413Z,91.19
2022-11-05T06:45:57.401Z,91.03
2022-11-05T06:46:57.393Z,91.60
2022-11-05T06:47:57.417Z,92.74
2022-11-05T06:48:57.368Z,91.60
2022-11-05T06:49:57.389Z,91.19
2022-11-05T06:50:57.372Z,91.30
2022-11-05T06:51:57.381Z,91.56
2022-11-05T06:52:57.357Z,90.94
2022-11-05T06:53:57.345Z,90.59
2022-11-05T06:54:57.361Z,90.90
2022-11-05T06:55:57.342Z,90.55
2022-11-05T06:56:57.336Z,90.14
2022-11-05T06:57:57.348Z,89.42
2022-11-05T06:58:57.329Z,89.05
2022-11-05T07:00:02.300Z,89.15
2022-11-05T07:00:59.342Z,89.46
2022-11-05T07:01:57.406Z,90.08
2022-11-05T07:02:57.316Z,89.25
2022-11-05T07:03:57.288Z,88.57
2022-11-05T07:04:57.267Z,90.12
2022-11-05T07:05:57.285Z,90.01
2022-11-05T07:06:57.265Z,89.46
2022-11-05T07:07:57.277Z,89.22
2022-11-05T07:08:57.296Z,88.66
2022-11-05T07:09:57.260Z,86.97
2022-11-05T07:10:57.239Z,86.46
2022-11-05T07:11:57.226Z,86.50
2022-11-05T07:12:57.221Z,87.57
2022-11-05T07:13:57.249Z,88.84
2022-11-05T07:14:57.284Z,88.74
2022-11-05T07:15:57.218Z,89.11
2022-11-05T07:16:57.201Z,89.36
2022-11-05T07:17:57.193Z,89.46
2022-11-05T07:18:57.218Z,89.83
2022-11-05T07:19:57.192Z,89.83
2022-11-05T07:20:57.178Z,89.89
2022-11-05T07:21:57.175Z,89.28
2022-11-05T07:22:57.165Z,88.74
2022-11-05T07:23:57.182Z,86.33
2022-11-05T07:24:57.173Z,85.41
2022-11-05T07:25:57.145Z,85.03
2022-11-05T07:26:57.138Z,83.33
2022-11-05T07:27:57.128Z,80.69
2022-11-05T07:28:57.185Z,78.44
2022-11-05T07:29:57.121Z,75.61
2022-11-05T07:30:57.115Z,73.67
2022-11-05T07:31:57.114Z,73.13
2022-11-05T07:32:57.102Z,73.36
2022-11-05T07:33:57.121Z,71.73
2022-11-05T07:34:57.094Z,69.43
2022-11-05T07:35:57.076Z,68.22
2022-11-05T07:36:57.120Z,66.53
2022-11-05T07:37:57.071Z,64.24
2022-11-05T07:39:00.306Z,61.85
2022-11-05T07:39:58.092Z,61.68
2022-11-05T07:40:57.049Z,63.34
2022-11-05T07:41:57.046Z,61.08
2022-11-05T07:42:57.069Z,60.88
2022-11-05T07:43:57.034Z,60.27
2022-11-05T07:44:57.065Z,60.25
2022-11-05T07:45:57.043Z,59.15
2022-11-05T07:46:57.020Z,57.31
2022-11-05T07:47:57.018Z,57.71
2022-11-05T07:48:57.035Z,59.11
2022-11-05T07:49:57.003Z,60.05
2022-11-05T07:50:56.998Z,61.04
2022-11-05T07:51:56.991Z,63.86
2022-11-05T07:52:57.003Z,65.55
2022-11-05T07:53:56.967Z,67.27
2022-11-05T07:54:56.983Z,68.72
2022-11-05T07:55:57.096Z,68.92
2022-11-05T07:56:56.945Z,68.89
2022-11-05T07:57:56.946Z,68.76
2022-11-05T07:58:56.943Z,68.86
2022-11-05T07:59:56.937Z,68.76
2022-11-05T08:00:57.023Z,68.26
2022-11-05T08:01:57.100Z,65.62
2022-11-05T08:03:00.820Z,63.38
2022-11-05T08:03:57.913Z,61.07
2022-11-05T08:04:56.915Z,59.15
2022-11-05T08:05:56.894Z,58.49
2022-11-05T08:06:56.887Z,57.86
2022-11-05T08:07:56.888Z,57.68
2022-11-05T08:08:57.822Z,59.15
2022-11-05T08:09:56.857Z,59.02
2022-11-05T08:10:56.840Z,58.59
2022-11-05T08:12:02.451Z,57.40
2022-11-05T08:12:58.846Z,55.28
2022-11-05T08:13:56.863Z,54.13
2022-11-05T08:14:56.828Z,53.59
2022-11-05T08:15:56.812Z,51.76
2022-11-05T08:16:57.458Z,50.96
2022-11-05T08:17:56.810Z,52.42
2022-11-05T08:18:56.828Z,53.52
2022-11-05T08:19:56.812Z,52.37
2022-11-05T08:20:56.790Z,51.39
2022-11-05T08:21:56.778Z,50.24
2022-11-05T08:22:56.862Z,49.22
2022-11-05T08:23:56.777Z,49.09
2022-11-05T08:25:00.346Z,47.95
2022-11-05T08:25:57.754Z,47.45
2022-11-05T08:26:56.742Z,47.33
2022-11-05T08:27:56.744Z,47.55
2022-11-05T08:28:56.750Z,47.17
2022-11-05T08:29:56.728Z,47.19
2022-11-05T08:30:56.740Z,47.45
2022-11-05T08:31:56.731Z,47.35
2022-11-05T08:32:56.728Z,47.33
2022-11-05T08:34:02.194Z,47.53
2022-11-05T08:34:58.815Z,47.22
2022-11-05T08:35:56.691Z,48.25
2022-11-05T08:36:56.694Z,47.95
2022-11-05T08:37:56.689Z,47.40
2022-11-05T08:38:56.670Z,46.68
2022-11-05T08:39:56.685Z,45.98
2022-11-05T08:40:56.680Z,46.24
2022-11-05T08:41:56.664Z,44.92
2022-11-05T08:42:56.636Z,44.12
2022-11-05T08:43:56.633Z,45.83
2022-11-05T08:44:56.657Z,47.00
2022-11-05T08:45:56.653Z,45.68
2022-11-05T08:46:56.620Z,45.02
2022-11-05T08:47:56.627Z,45.30
2022-11-05T08:48:56.596Z,44.10
2022-11-05T08:49:56.642Z,44.53
2022-11-05T08:50:56.612Z,45.17
2022-11-05T08:51:56.587Z,46.50
2022-11-05T08:52:56.590Z,46.68
2022-11-05T08:53:56.679Z,46.88
2022-11-05T08:54:56.585Z,47.00
2022-11-05T08:55:56.560Z,45.71
2022-11-05T08:56:56.590Z,46.58
2022-11-05T08:57:56.563Z,47.10
2022-11-05T08:58:56.558Z,47.95
2022-11-05T08:59:56.529Z,47.13
2022-11-05T09:01:01.784Z,46.50
2022-11-05T09:01:58.666Z,47.15
2022-11-05T09:02:56.528Z,46.53
2022-11-05T09:03:56.552Z,47.20
2022-11-05T09:04:56.550Z,44.46
2022-11-05T09:05:56.526Z,45.53
2022-11-05T09:06:56.524Z,46.36
2022-11-05T09:08:00.863Z,44.69
2022-11-05T09:08:58.496Z,47.13
2022-11-05T09:09:56.507Z,46.50
2022-11-05T09:10:56.455Z,45.24
2022-11-05T09:12:11.923Z,43.88
2022-11-05T09:12:58.469Z,41.89
2022-11-05T09:13:56.465Z,41.99
2022-11-05T09:14:56.449Z,41.44
2022-11-05T09:15:56.471Z,44.21
2022-11-05T09:16:56.427Z,45.09
2022-11-05T09:17:56.422Z,43.97
2022-11-05T09:18:56.436Z,46.97
2022-11-05T09:19:56.406Z,45.81
2022-11-05T09:20:56.446Z,46.01
2022-11-05T09:21:56.386Z,44.59
2022-11-05T09:22:56.404Z,44.02
2022-11-05T09:23:56.394Z,43.35
2022-11-05T09:24:56.369Z,41.53
2022-11-05T09:25:56.482Z,41.30
2022-11-05T09:26:56.358Z,40.70
2022-11-05T09:27:56.369Z,41.55
2022-11-05T09:28:56.355Z,44.29
2022-11-05T09:29:56.351Z,46.62
2022-11-05T09:30:56.350Z,46.95
2022-11-05T09:31:56.327Z,44.83
2022-11-05T09:32:56.338Z,46.65
2022-11-05T09:33:56.343Z,47.25
2022-11-05T09:34:56.335Z,47.55
2022-11-05T09:35:56.323Z,46.55
2022-11-05T09:36:56.305Z,45.53
2022-11-05T09:38:00.737Z,44.23
2022-11-05T09:38:57.304Z,45.39
2022-11-05T09:39:56.282Z,47.26
2022-11-05T09:40:56.275Z,47.66
2022-11-05T09:41:56.316Z,47.74
2022-11-05T09:42:56.257Z,47.30
2022-11-05T09:43:56.269Z,46.99
2022-11-05T09:44:56.233Z,46.35
2022-11-05T09:45:57.299Z,47.92
2022-11-05T09:46:56.330Z,47.54
2022-11-05T09:47:57.031Z,47.77
2022-11-05T09:48:56.277Z,43.89
2022-11-05T09:49:56.302Z,43.05
2022-11-05T09:50:56.398Z,42.85
2022-11-05T09:51:56.341Z,42.67
2022-11-05T09:52:56.407Z,44.35
2022-11-05T09:53:56.287Z,45.95
2022-11-05T09:54:56.274Z,44.21
2022-11-05T09:55:56.290Z,43.85
2022-11-05T09:56:56.228Z,42.79
2022-11-05T09:57:56.261Z,44.51
2022-11-05T09:58:56.205Z,42.51
2022-11-05T09:59:56.305Z,43.21
2022-11-05T10:00:56.390Z,45.57
2022-11-05T10:01:56.408Z,44.51
2022-11-05T10:02:56.294Z,43.63
2022-11-05T10:03:56.211Z,42.85
2022-11-05T10:04:56.956Z,43.77
2022-11-05T10:05:56.222Z,44.27
2022-11-05T10:06:56.140Z,46.14
2022-11-05T10:07:56.160Z,47.42
2022-11-05T10:08:56.245Z,45.84
2022-11-05T10:09:56.145Z,46.73
2022-11-05T10:10:56.094Z,47.71
2022-11-05T10:11:57.041Z,46.66
2022-11-05T10:12:56.103Z,47.08
2022-11-05T10:13:56.094Z,47.44
2022-11-05T10:14:56.135Z,45.77
2022-11-05T10:15:56.240Z,44.07
2022-11-05T10:16:57.045Z,41.42
2022-11-05T10:17:56.089Z,43.77
2022-11-05T10:18:56.597Z,44.63
2022-11-05T10:19:56.188Z,44.71
2022-11-05T10:20:56.084Z,42.45
2022-11-05T10:22:12.272Z,43.67
2022-11-05T10:22:58.029Z,43.35
2022-11-05T10:23:56.058Z,42.89
2022-11-05T10:24:56.067Z,43.41
2022-11-05T10:25:56.010Z,44.92
2022-11-05T10:26:56.010Z,47.08
2022-11-05T10:27:56.035Z,47.71
2022-11-05T10:28:56.039Z,46.74
2022-11-05T10:29:56.099Z,46.94
2022-11-05T10:30:56.026Z,46.07
2022-11-05T10:31:55.990Z,44.73
2022-11-05T10:32:55.986Z,42.67
2022-11-05T10:33:56.026Z,43.99
2022-11-05T10:34:56.000Z,44.15
2022-11-05T10:35:56.011Z,45.47
2022-11-05T10:36:55.995Z,45.35
2022-11-05T10:37:55.963Z,44.19
2022-11-05T10:38:56.474Z,42.95
2022-11-05T10:39:55.992Z,44.49
2022-11-05T10:40:55.948Z,43.69
2022-11-05T10:41:55.950Z,43.19
2022-11-05T10:42:55.959Z,44.53
2022-11-05T10:43:55.930Z,44.59
2022-11-05T10:44:55.922Z,43.09
2022-11-05T10:45:56.003Z,42.81
2022-11-05T10:46:55.956Z,44.39
2022-11-05T10:47:55.907Z,45.56
2022-11-05T10:48:55.909Z,45.09
2022-11-05T10:49:55.918Z,43.91
2022-11-05T10:50:55.910Z,43.53
2022-11-05T10:51:55.900Z,44.39
2022-11-05T10:52:56.917Z,44.27
2022-11-05T10:54:00.506Z,42.69
2022-11-05T10:54:57.886Z,44.48
2022-11-05T10:55:55.892Z,48.05
2022-11-05T10:56:55.865Z,54.38
2022-11-05T10:57:55.870Z,57.42
2022-11-05T10:58:55.894Z,58.48
2022-11-05T10:59:55.858Z,61.60
2022-11-05T11:00:55.924Z,63.18
2022-11-05T11:01:56.029Z,63.82
2022-11-05T11:02:55.847Z,63.56
2022-11-05T11:03:55.813Z,64.17
2022-11-05T11:04:55.825Z,59.61
2022-11-05T11:05:55.835Z,60.84
2022-11-05T11:06:55.816Z,60.78
2022-11-05T11:07:55.820Z,55.16
2022-11-05T11:08:55.875Z,49.91
2022-11-05T11:09:55.817Z,49.38
2022-11-05T11:10:55.826Z,47.53
2022-11-05T11:14:52.068Z,44.34
2022-11-05T11:15:53.176Z,44.78
2022-11-05T11:16:53.232Z,44.98
2022-11-05T11:17:53.228Z,45.46
2022-11-05T11:18:53.168Z,43.75
2022-11-05T11:19:53.157Z,41.69
2022-11-05T11:20:53.148Z,42.18
2022-11-05T11:21:53.168Z,42.85
2022-11-05T11:22:53.153Z,40.44
2022-11-05T11:23:53.133Z,39.25
2022-11-05T11:24:53.128Z,36.20
2022-11-05T11:25:53.119Z,36.08
2022-11-05T11:26:53.135Z,36.41
2022-11-05T11:27:53.107Z,38.35
2022-11-05T11:28:53.101Z,37.56
2022-11-05T11:29:53.094Z,38.45
2022-11-05T11:30:53.089Z,42.11
2022-11-05T11:31:53.093Z,41.58
2022-11-05T11:32:53.094Z,43.98
2022-11-05T11:33:53.109Z,44.16
2022-11-05T11:34:53.090Z,47.59
2022-11-05T11:35:53.073Z,48.92
2022-11-05T11:36:53.053Z,50.32
2022-11-05T11:37:53.077Z,51.05
2022-11-05T11:38:53.072Z,52.76
2022-11-05T11:39:54.069Z,55.88
2022-11-05T11:40:53.054Z,56.46
2022-11-05T11:41:53.036Z,56.67
2022-11-05T11:42:53.080Z,55.93
2022-11-05T11:43:53.013Z,55.24
2022-11-05T11:44:53.013Z,56.38
2022-11-05T11:45:53.022Z,55.57
2022-11-05T11:46:53.001Z,53.40
2022-11-05T11:47:53.135Z,49.57
2022-11-05T11:48:52.990Z,48.17
2022-11-05T11:49:52.976Z,45.00
2022-11-05T11:50:52.991Z,43.33
2022-11-05T11:51:52.974Z,44.93
2022-11-05T11:52:52.966Z,46.47
2022-11-05T11:53:52.977Z,48.02
2022-11-05T11:54:52.949Z,49.68
2022-11-05T11:55:52.945Z,48.72
2022-11-05T11:56:52.961Z,52.09
2022-11-05T11:57:52.940Z,54.79
2022-11-05T11:58:52.965Z,56.88
2022-11-05T12:00:09.643Z,54.08
2022-11-05T12:00:54.940Z,55.60
2022-11-05T12:01:53.029Z,54.21
2022-11-05T12:02:55.963Z,55.62
2022-11-05T12:03:53.903Z,55.32
2022-11-05T12:04:52.897Z,55.44
2022-11-05T12:05:52.880Z,56.28
2022-11-05T12:06:53.782Z,56.31
2022-11-05T12:07:52.872Z,56.84
2022-11-05T12:08:59.523Z,57.45
2022-11-05T12:09:54.872Z,57.78
2022-11-05T12:10:52.850Z,58.06
2022-11-05T12:11:52.857Z,57.96
2022-11-05T12:12:52.878Z,57.75
2022-11-05T12:13:52.841Z,58.69
2022-11-05T12:14:52.873Z,59.00
2022-11-05T12:15:52.838Z,58.90
2022-11-05T12:16:52.823Z,59.20
2022-11-05T12:17:52.833Z,58.90
2022-11-05T12:18:52.817Z,58.92
2022-11-05T12:19:52.827Z,59.50
2022-11-05T12:20:57.834Z,58.90
2022-11-05T12:21:54.786Z,59.61
2022-11-05T12:22:52.809Z,59.41
2022-11-05T12:23:52.783Z,59.61
2022-11-05T12:24:52.776Z,59.27
2022-11-05T12:25:52.758Z,58.76
2022-11-05T12:26:52.779Z,58.49
2022-11-05T12:27:53.760Z,59.23
2022-11-05T12:29:17.233Z,57.32
2022-11-05T12:29:54.743Z,56.78
2022-11-05T12:30:52.743Z,52.62
2022-11-05T12:31:52.742Z,51.48
2022-11-05T12:32:52.776Z,52.67
2022-11-05T12:33:52.702Z,54.00
2022-11-05T12:34:52.710Z,53.30
2022-11-05T12:35:57.561Z,48.20
2022-11-05T12:36:54.710Z,46.67
2022-11-05T12:37:52.697Z,44.86
2022-11-05T12:38:52.682Z,43.62
2022-11-05T12:39:52.734Z,41.39
2022-11-05T12:40:52.664Z,39.14
2022-11-05T12:41:53.771Z,40.25
2022-11-05T12:42:52.690Z,42.18
2022-11-05T12:43:52.641Z,43.44
2022-11-05T12:44:52.640Z,44.36
2022-11-05T12:45:52.629Z,44.81
2022-11-05T12:46:52.658Z,44.83
2022-11-05T12:47:52.623Z,45.51
2022-11-05T12:48:52.674Z,45.98
2022-11-05T12:49:52.607Z,47.26
2022-11-05T12:50:52.611Z,45.71
2022-11-05T12:51:52.591Z,44.99
2022-11-05T12:52:52.599Z,44.68
2022-11-05T12:53:52.615Z,46.78
2022-11-05T12:54:52.575Z,47.94
2022-11-05T12:55:52.592Z,47.63